sensor_id;sensor_type;location;lat;lon;timestamp;temperature;humidity
52181;DHT22;38158;53.338;6.514;2023-11-21T00:00:01;9.30;99.90
52181;DHT22;38158;53.338;6.514;2023-11-21T00:02:27;9.30;99.90
52181;DHT22;38158;53.338;6.514;2023-11-21T00:04:53;9.30;99.90
52181;DHT22;38158;53.338;6.514;2023-11-21T00:07:19;9.30;99.90
52181;DHT22;38158;53.338;6.514;2023-11-21T00:09:47;9.30;99.90
52181;DHT22;38158;53.338;6.514;2023-11-21T00:12:12;9.30;99.90
52181;DHT22;38158;53.338;6.514;2023-11-21T00:14:39;9.30;99.90
52181;DHT22;38158;53.338;6.514;2023-11-21T00:17:05;9.30;99.90
52181;DHT22;38158;53.338;6.514;2023-11-21T00:19:32;9.30;99.90
52181;DHT22;38158;53.338;6.514;2023-11-21T00:21:58;9.30;99.90
52181;DHT22;38158;53.338;6.514;2023-11-21T00:24:24;9.30;99.90
52181;DHT22;38158;53.338;6.514;2023-11-21T00:26:51;9.30;99.90
52181;DHT22;38158;53.338;6.514;2023-11-21T00:29:16;9.30;99.90
52181;DHT22;38158;53.338;6.514;2023-11-21T00:31:44;9.40;99.90
52181;DHT22;38158;53.338;6.514;2023-11-21T00:34:11;9.30;99.90
52181;DHT22;38158;53.338;6.514;2023-11-21T00:36:37;9.40;99.90
52181;DHT22;38158;53.338;6.514;2023-11-21T00:39:04;9.40;99.90
52181;DHT22;38158;53.338;6.514;2023-11-21T00:41:31;9.40;99.90
52181;DHT22;38158;53.338;6.514;2023-11-21T00:43:57;9.40;99.90
52181;DHT22;38158;53.338;6.514;2023-11-21T00:46:24;9.40;99.90
52181;DHT22;38158;53.338;6.514;2023-11-21T00:48:52;9.40;99.90
52181;DHT22;38158;53.338;6.514;2023-11-21T00:51:19;9.40;99.90
52181;DHT22;38158;53.338;6.514;2023-11-21T00:53:45;9.40;99.90
52181;DHT22;38158;53.338;6.514;2023-11-21T00:56:12;9.40;99.90
52181;DHT22;38158;53.338;6.514;2023-11-21T00:58:39;9.40;99.90
52181;DHT22;38158;53.338;6.514;2023-11-21T01:01:08;9.40;99.90
52181;DHT22;38158;53.338;6.514;2023-11-21T01:03:33;9.40;99.90
52181;DHT22;38158;53.338;6.514;2023-11-21T01:05:59;9.40;99.90
52181;DHT22;38158;53.338;6.514;2023-11-21T01:08:25;9.40;99.90
52181;DHT22;38158;53.338;6.514;2023-11-21T01:10:50;9.40;99.90
52181;DHT22;38158;53.338;6.514;2023-11-21T01:13:16;9.40;99.90
52181;DHT22;38158;53.338;6.514;2023-11-21T01:15:42;9.40;99.90
52181;DHT22;38158;53.338;6.514;2023-11-21T01:18:08;9.40;99.90
52181;DHT22;38158;53.338;6.514;2023-11-21T01:20:34;9.40;99.90
52181;DHT22;38158;53.338;6.514;2023-11-21T01:23:00;9.40;99.90
52181;DHT22;38158;53.338;6.514;2023-11-21T01:25:26;9.40;99.90
52181;DHT22;38158;53.338;6.514;2023-11-21T01:27:52;9.40;99.90
52181;DHT22;38158;53.338;6.514;2023-11-21T01:30:17;9.40;99.90
52181;DHT22;38158;53.338;6.514;2023-11-21T01:32:43;9.40;99.90
52181;DHT22;38158;53.338;6.514;2023-11-21T01:35:09;9.40;99.90
52181;DHT22;38158;53.338;6.514;2023-11-21T01:37:36;9.40;99.90
52181;DHT22;38158;53.338;6.514;2023-11-21T01:40:03;9.50;99.90
52181;DHT22;38158;53.338;6.514;2023-11-21T01:42:33;9.50;99.90
52181;DHT22;38158;53.338;6.514;2023-11-21T01:45:00;9.50;99.90
52181;DHT22;38158;53.338;6.514;2023-11-21T01:47:29;9.50;99.90
52181;DHT22;38158;53.338;6.514;2023-11-21T01:49:55;9.50;99.90
52181;DHT22;38158;53.338;6.514;2023-11-21T01:52:21;9.40;99.90
52181;DHT22;38158;53.338;6.514;2023-11-21T01:54:47;9.40;99.90
52181;DHT22;38158;53.338;6.514;2023-11-21T01:57:13;9.40;99.90
52181;DHT22;38158;53.338;6.514;2023-11-21T01:59:41;9.40;99.90
52181;DHT22;38158;53.338;6.514;2023-11-21T02:02:08;9.40;99.90
52181;DHT22;38158;53.338;6.514;2023-11-21T02:04:36;9.40;99.90
52181;DHT22;38158;53.338;6.514;2023-11-21T02:07:02;9.40;99.90
52181;DHT22;38158;53.338;6.514;2023-11-21T02:09:31;9.40;99.90
52181;DHT22;38158;53.338;6.514;2023-11-21T02:12:03;9.40;99.90
52181;DHT22;38158;53.338;6.514;2023-11-21T02:14:30;9.40;99.90
52181;DHT22;38158;53.338;6.514;2023-11-21T02:16:56;9.40;99.90
52181;DHT22;38158;53.338;6.514;2023-11-21T02:19:23;9.40;99.90
52181;DHT22;38158;53.338;6.514;2023-11-21T02:21:52;9.40;99.90
52181;DHT22;38158;53.338;6.514;2023-11-21T02:24:21;9.40;99.90
52181;DHT22;38158;53.338;6.514;2023-11-21T02:26:50;9.40;99.90
52181;DHT22;38158;53.338;6.514;2023-11-21T02:29:20;9.40;99.90
52181;DHT22;38158;53.338;6.514;2023-11-21T02:31:54;9.40;99.90
52181;DHT22;38158;53.338;6.514;2023-11-21T02:34:21;9.40;99.90
52181;DHT22;38158;53.338;6.514;2023-11-21T02:36:47;9.40;99.90
52181;DHT22;38158;53.338;6.514;2023-11-21T02:39:16;9.40;99.90
52181;DHT22;38158;53.338;6.514;2023-11-21T02:41:43;9.40;99.90
52181;DHT22;38158;53.338;6.514;2023-11-21T02:44:09;9.40;99.90
52181;DHT22;38158;53.338;6.514;2023-11-21T02:46:36;9.40;99.90
52181;DHT22;38158;53.338;6.514;2023-11-21T02:49:06;9.40;99.90
52181;DHT22;38158;53.338;6.514;2023-11-21T02:51:35;9.40;99.90
52181;DHT22;38158;53.338;6.514;2023-11-21T02:54:01;9.40;99.90
52181;DHT22;38158;53.338;6.514;2023-11-21T02:56:30;9.30;99.90
52181;DHT22;38158;53.338;6.514;2023-11-21T02:58:56;9.30;99.90
52181;DHT22;38158;53.338;6.514;2023-11-21T03:01:22;9.30;99.90
52181;DHT22;38158;53.338;6.514;2023-11-21T03:03:49;9.30;99.90
52181;DHT22;38158;53.338;6.514;2023-11-21T03:06:20;9.30;99.90
52181;DHT22;38158;53.338;6.514;2023-11-21T03:08:46;9.30;99.90
52181;DHT22;38158;53.338;6.514;2023-11-21T03:11:12;9.30;99.90
52181;DHT22;38158;53.338;6.514;2023-11-21T03:13:39;9.30;99.90
52181;DHT22;38158;53.338;6.514;2023-11-21T03:16:10;9.30;99.90
52181;DHT22;38158;53.338;6.514;2023-11-21T03:18:40;9.30;99.90
52181;DHT22;38158;53.338;6.514;2023-11-21T03:21:06;9.30;99.90
52181;DHT22;38158;53.338;6.514;2023-11-21T03:23:34;9.30;99.90
52181;DHT22;38158;53.338;6.514;2023-11-21T03:26:01;8.70;99.90
52181;DHT22;38158;53.338;6.514;2023-11-21T03:28:27;9.20;99.90
52181;DHT22;38158;53.338;6.514;2023-11-21T03:30:53;9.20;99.90
52181;DHT22;38158;53.338;6.514;2023-11-21T03:33:19;9.20;99.90
52181;DHT22;38158;53.338;6.514;2023-11-21T03:35:45;9.20;99.90
52181;DHT22;38158;53.338;6.514;2023-11-21T03:38:11;9.20;99.90
52181;DHT22;38158;53.338;6.514;2023-11-21T03:40:38;9.10;99.90
52181;DHT22;38158;53.338;6.514;2023-11-21T03:43:05;9.10;99.90
52181;DHT22;38158;53.338;6.514;2023-11-21T03:45:31;9.10;99.90
52181;DHT22;38158;53.338;6.514;2023-11-21T03:47:57;9.10;99.90
52181;DHT22;38158;53.338;6.514;2023-11-21T03:50:23;9.10;99.90
52181;DHT22;38158;53.338;6.514;2023-11-21T03:52:48;9.00;99.90
52181;DHT22;38158;53.338;6.514;2023-11-21T03:55:14;9.10;99.90
52181;DHT22;38158;53.338;6.514;2023-11-21T03:57:40;9.00;99.90
52181;DHT22;38158;53.338;6.514;2023-11-21T04:00:07;9.10;99.90
52181;DHT22;38158;53.338;6.514;2023-11-21T04:02:34;9.10;99.90
52181;DHT22;38158;53.338;6.514;2023-11-21T04:05:00;9.10;99.90
52181;DHT22;38158;53.338;6.514;2023-11-21T04:07:26;9.10;99.90
52181;DHT22;38158;53.338;6.514;2023-11-21T04:09:52;9.10;99.90
52181;DHT22;38158;53.338;6.514;2023-11-21T04:12:19;9.10;99.90
52181;DHT22;38158;53.338;6.514;2023-11-21T04:14:45;9.10;99.90
52181;DHT22;38158;53.338;6.514;2023-11-21T04:17:10;9.10;99.90
52181;DHT22;38158;53.338;6.514;2023-11-21T04:19:36;9.10;99.90
52181;DHT22;38158;53.338;6.514;2023-11-21T04:22:02;9.10;99.90
52181;DHT22;38158;53.338;6.514;2023-11-21T04:24:27;9.10;99.90
52181;DHT22;38158;53.338;6.514;2023-11-21T04:26:53;9.10;99.90
52181;DHT22;38158;53.338;6.514;2023-11-21T04:29:19;9.10;99.90
52181;DHT22;38158;53.338;6.514;2023-11-21T04:31:44;9.10;99.90
52181;DHT22;38158;53.338;6.514;2023-11-21T04:34:10;9.10;99.90
52181;DHT22;38158;53.338;6.514;2023-11-21T04:36:36;9.10;99.90
52181;DHT22;38158;53.338;6.514;2023-11-21T04:39:02;9.10;99.90
52181;DHT22;38158;53.338;6.514;2023-11-21T04:41:28;9.10;99.90
52181;DHT22;38158;53.338;6.514;2023-11-21T04:43:54;9.10;99.90
52181;DHT22;38158;53.338;6.514;2023-11-21T04:46:19;9.10;99.90
52181;DHT22;38158;53.338;6.514;2023-11-21T04:48:45;9.10;99.90
52181;DHT22;38158;53.338;6.514;2023-11-21T04:51:10;9.10;99.90
52181;DHT22;38158;53.338;6.514;2023-11-21T04:53:39;9.40;99.90
52181;DHT22;38158;53.338;6.514;2023-11-21T04:56:05;9.10;99.90
52181;DHT22;38158;53.338;6.514;2023-11-21T04:58:31;9.10;99.90
52181;DHT22;38158;53.338;6.514;2023-11-21T05:00:58;9.10;99.90
52181;DHT22;38158;53.338;6.514;2023-11-21T05:03:24;9.10;99.90
52181;DHT22;38158;53.338;6.514;2023-11-21T05:05:49;9.10;99.90
52181;DHT22;38158;53.338;6.514;2023-11-21T05:08:15;9.10;99.90
52181;DHT22;38158;53.338;6.514;2023-11-21T05:10:41;9.10;99.90
52181;DHT22;38158;53.338;6.514;2023-11-21T05:13:06;9.10;99.90
52181;DHT22;38158;53.338;6.514;2023-11-21T05:15:36;9.10;99.90
52181;DHT22;38158;53.338;6.514;2023-11-21T05:18:02;9.10;99.90
52181;DHT22;38158;53.338;6.514;2023-11-21T05:20:28;9.10;99.90
52181;DHT22;38158;53.338;6.514;2023-11-21T05:22:53;9.10;99.90
52181;DHT22;38158;53.338;6.514;2023-11-21T05:25:19;9.10;99.90
52181;DHT22;38158;53.338;6.514;2023-11-21T05:27:46;9.10;99.90
52181;DHT22;38158;53.338;6.514;2023-11-21T05:30:13;9.10;99.90
52181;DHT22;38158;53.338;6.514;2023-11-21T05:32:39;9.10;99.90
52181;DHT22;38158;53.338;6.514;2023-11-21T05:35:08;9.00;99.90
52181;DHT22;38158;53.338;6.514;2023-11-21T05:37:37;9.00;99.90
52181;DHT22;38158;53.338;6.514;2023-11-21T05:40:06;9.00;99.90
52181;DHT22;38158;53.338;6.514;2023-11-21T05:42:32;9.00;99.90
52181;DHT22;38158;53.338;6.514;2023-11-21T05:44:58;9.00;99.90
52181;DHT22;38158;53.338;6.514;2023-11-21T05:47:37;8.90;99.90
52181;DHT22;38158;53.338;6.514;2023-11-21T05:50:04;8.90;99.90
52181;DHT22;38158;53.338;6.514;2023-11-21T05:52:31;9.00;99.90
52181;DHT22;38158;53.338;6.514;2023-11-21T05:54:58;8.90;99.90
52181;DHT22;38158;53.338;6.514;2023-11-21T05:57:23;8.90;99.90
52181;DHT22;38158;53.338;6.514;2023-11-21T05:59:49;8.90;99.90
52181;DHT22;38158;53.338;6.514;2023-11-21T06:02:15;8.90;99.90
52181;DHT22;38158;53.338;6.514;2023-11-21T06:04:40;8.90;99.90
52181;DHT22;38158;53.338;6.514;2023-11-21T06:07:06;8.90;99.90
52181;DHT22;38158;53.338;6.514;2023-11-21T06:09:32;8.90;99.90
52181;DHT22;38158;53.338;6.514;2023-11-21T06:11:58;8.90;99.90
52181;DHT22;38158;53.338;6.514;2023-11-21T06:14:24;8.90;99.90
52181;DHT22;38158;53.338;6.514;2023-11-21T06:16:49;8.80;99.90
52181;DHT22;38158;53.338;6.514;2023-11-21T06:19:17;8.80;99.90
52181;DHT22;38158;53.338;6.514;2023-11-21T06:21:45;8.80;99.90
52181;DHT22;38158;53.338;6.514;2023-11-21T06:24:12;8.80;99.90
52181;DHT22;38158;53.338;6.514;2023-11-21T06:26:38;8.80;99.90
52181;DHT22;38158;53.338;6.514;2023-11-21T06:29:04;8.70;99.90
52181;DHT22;38158;53.338;6.514;2023-11-21T06:31:30;8.70;99.90
52181;DHT22;38158;53.338;6.514;2023-11-21T06:33:55;8.70;99.90
52181;DHT22;38158;53.338;6.514;2023-11-21T06:36:21;8.70;99.90
52181;DHT22;38158;53.338;6.514;2023-11-21T06:38:47;8.70;99.90
52181;DHT22;38158;53.338;6.514;2023-11-21T06:41:13;8.60;99.90
52181;DHT22;38158;53.338;6.514;2023-11-21T06:43:41;8.60;99.90
52181;DHT22;38158;53.338;6.514;2023-11-21T06:46:10;8.60;99.90
52181;DHT22;38158;53.338;6.514;2023-11-21T06:48:36;8.60;99.90
52181;DHT22;38158;53.338;6.514;2023-11-21T06:51:04;8.50;99.90
52181;DHT22;38158;53.338;6.514;2023-11-21T06:53:29;8.50;99.90
52181;DHT22;38158;53.338;6.514;2023-11-21T06:55:55;8.50;99.90
52181;DHT22;38158;53.338;6.514;2023-11-21T06:58:21;8.50;99.90
52181;DHT22;38158;53.338;6.514;2023-11-21T07:00:46;8.50;99.90
52181;DHT22;38158;53.338;6.514;2023-11-21T07:03:14;8.50;99.90
52181;DHT22;38158;53.338;6.514;2023-11-21T07:05:40;8.50;99.90
52181;DHT22;38158;53.338;6.514;2023-11-21T07:08:05;8.50;99.90
52181;DHT22;38158;53.338;6.514;2023-11-21T07:10:33;8.40;99.90
52181;DHT22;38158;53.338;6.514;2023-11-21T07:12:58;8.40;99.90
52181;DHT22;38158;53.338;6.514;2023-11-21T07:15:24;8.40;99.90
52181;DHT22;38158;53.338;6.514;2023-11-21T07:17:51;8.40;99.90
52181;DHT22;38158;53.338;6.514;2023-11-21T07:20:19;8.40;99.90
52181;DHT22;38158;53.338;6.514;2023-11-21T07:22:45;8.40;99.90
52181;DHT22;38158;53.338;6.514;2023-11-21T07:25:11;8.40;99.90
52181;DHT22;38158;53.338;6.514;2023-11-21T07:27:37;8.40;99.90
52181;DHT22;38158;53.338;6.514;2023-11-21T07:30:03;8.40;99.90
52181;DHT22;38158;53.338;6.514;2023-11-21T07:32:33;8.40;99.90
52181;DHT22;38158;53.338;6.514;2023-11-21T07:34:59;8.40;99.90
52181;DHT22;38158;53.338;6.514;2023-11-21T07:37:26;8.40;99.90
52181;DHT22;38158;53.338;6.514;2023-11-21T07:39:54;8.40;99.90
52181;DHT22;38158;53.338;6.514;2023-11-21T07:42:25;8.30;99.90
52181;DHT22;38158;53.338;6.514;2023-11-21T07:44:52;8.40;99.90
52181;DHT22;38158;53.338;6.514;2023-11-21T07:47:17;8.30;99.90
52181;DHT22;38158;53.338;6.514;2023-11-21T07:49:43;8.30;99.90
52181;DHT22;38158;53.338;6.514;2023-11-21T07:52:10;8.30;99.90
52181;DHT22;38158;53.338;6.514;2023-11-21T07:54:36;8.30;99.90
52181;DHT22;38158;53.338;6.514;2023-11-21T07:57:02;8.30;99.90
52181;DHT22;38158;53.338;6.514;2023-11-21T07:59:29;8.30;99.90
52181;DHT22;38158;53.338;6.514;2023-11-21T08:01:55;8.20;99.90
52181;DHT22;38158;53.338;6.514;2023-11-21T08:04:21;8.30;99.90
52181;DHT22;38158;53.338;6.514;2023-11-21T08:06:46;8.30;99.90
52181;DHT22;38158;53.338;6.514;2023-11-21T08:09:12;8.30;99.90
52181;DHT22;38158;53.338;6.514;2023-11-21T08:11:38;8.30;99.90
52181;DHT22;38158;53.338;6.514;2023-11-21T08:14:05;8.30;99.90
52181;DHT22;38158;53.338;6.514;2023-11-21T08:16:30;8.30;99.90
52181;DHT22;38158;53.338;6.514;2023-11-21T08:18:56;8.30;99.90
52181;DHT22;38158;53.338;6.514;2023-11-21T08:21:22;8.30;99.90
52181;DHT22;38158;53.338;6.514;2023-11-21T08:23:52;8.30;99.90
52181;DHT22;38158;53.338;6.514;2023-11-21T08:26:20;8.20;99.90
52181;DHT22;38158;53.338;6.514;2023-11-21T08:28:46;8.20;99.90
52181;DHT22;38158;53.338;6.514;2023-11-21T08:31:12;8.20;99.90
52181;DHT22;38158;53.338;6.514;2023-11-21T08:33:38;8.20;99.90
52181;DHT22;38158;53.338;6.514;2023-11-21T08:36:08;8.20;99.90
52181;DHT22;38158;53.338;6.514;2023-11-21T08:38:35;8.20;99.90
52181;DHT22;38158;53.338;6.514;2023-11-21T08:41:05;8.20;99.90
52181;DHT22;38158;53.338;6.514;2023-11-21T08:43:34;8.20;99.90
52181;DHT22;38158;53.338;6.514;2023-11-21T08:46:00;8.20;99.90
52181;DHT22;38158;53.338;6.514;2023-11-21T08:48:26;8.20;99.90
52181;DHT22;38158;53.338;6.514;2023-11-21T08:50:53;8.20;99.90
52181;DHT22;38158;53.338;6.514;2023-11-21T08:53:19;8.20;99.90
52181;DHT22;38158;53.338;6.514;2023-11-21T08:55:45;8.20;99.90
52181;DHT22;38158;53.338;6.514;2023-11-21T08:58:11;8.20;99.90
52181;DHT22;38158;53.338;6.514;2023-11-21T09:00:39;8.30;99.90
52181;DHT22;38158;53.338;6.514;2023-11-21T09:03:05;8.30;99.90
52181;DHT22;38158;53.338;6.514;2023-11-21T09:05:37;8.30;99.90
52181;DHT22;38158;53.338;6.514;2023-11-21T09:08:02;8.20;99.90
52181;DHT22;38158;53.338;6.514;2023-11-21T09:10:28;8.30;99.90
52181;DHT22;38158;53.338;6.514;2023-11-21T09:12:55;8.30;99.90
52181;DHT22;38158;53.338;6.514;2023-11-21T09:15:21;8.40;99.90
52181;DHT22;38158;53.338;6.514;2023-11-21T09:17:47;8.30;99.90
52181;DHT22;38158;53.338;6.514;2023-11-21T09:20:13;8.40;99.90
52181;DHT22;38158;53.338;6.514;2023-11-21T09:22:40;8.30;99.90
52181;DHT22;38158;53.338;6.514;2023-11-21T09:25:06;8.40;99.90
52181;DHT22;38158;53.338;6.514;2023-11-21T09:27:34;8.30;99.90
52181;DHT22;38158;53.338;6.514;2023-11-21T09:30:01;8.30;99.90
52181;DHT22;38158;53.338;6.514;2023-11-21T09:32:27;8.40;99.90
52181;DHT22;38158;53.338;6.514;2023-11-21T09:34:52;8.40;99.90
52181;DHT22;38158;53.338;6.514;2023-11-21T09:37:20;8.30;99.90
52181;DHT22;38158;53.338;6.514;2023-11-21T09:39:46;8.30;99.90
52181;DHT22;38158;53.338;6.514;2023-11-21T09:42:25;8.30;99.90
52181;DHT22;38158;53.338;6.514;2023-11-21T09:47:46;8.20;99.90
52181;DHT22;38158;53.338;6.514;2023-11-21T09:50:17;8.20;99.90
52181;DHT22;38158;53.338;6.514;2023-11-21T09:52:58;8.30;99.90
52181;DHT22;38158;53.338;6.514;2023-11-21T09:55:27;8.20;99.90
52181;DHT22;38158;53.338;6.514;2023-11-21T09:58:03;8.20;99.90
52181;DHT22;38158;53.338;6.514;2023-11-21T10:00:30;8.30;99.90
52181;DHT22;38158;53.338;6.514;2023-11-21T10:02:58;8.30;99.90
52181;DHT22;38158;53.338;6.514;2023-11-21T10:05:25;8.40;99.90
52181;DHT22;38158;53.338;6.514;2023-11-21T10:07:51;8.40;99.90
52181;DHT22;38158;53.338;6.514;2023-11-21T10:10:20;8.50;99.90
52181;DHT22;38158;53.338;6.514;2023-11-21T10:12:50;8.50;99.90
52181;DHT22;38158;53.338;6.514;2023-11-21T10:15:21;8.60;99.90
52181;DHT22;38158;53.338;6.514;2023-11-21T10:17:49;8.60;99.90
52181;DHT22;38158;53.338;6.514;2023-11-21T10:20:15;8.70;99.90
52181;DHT22;38158;53.338;6.514;2023-11-21T10:22:42;8.60;99.90
52181;DHT22;38158;53.338;6.514;2023-11-21T10:25:08;8.70;99.90
52181;DHT22;38158;53.338;6.514;2023-11-21T10:27:36;8.70;99.90
52181;DHT22;38158;53.338;6.514;2023-11-21T10:30:03;8.60;99.90
52181;DHT22;38158;53.338;6.514;2023-11-21T10:32:30;8.60;99.90
52181;DHT22;38158;53.338;6.514;2023-11-21T10:34:59;8.50;99.90
52181;DHT22;38158;53.338;6.514;2023-11-21T10:37:26;8.50;99.90
52181;DHT22;38158;53.338;6.514;2023-11-21T10:39:59;8.50;99.90
52181;DHT22;38158;53.338;6.514;2023-11-21T10:42:25;8.50;99.90
52181;DHT22;38158;53.338;6.514;2023-11-21T10:44:53;8.50;99.90
52181;DHT22;38158;53.338;6.514;2023-11-21T10:47:19;8.40;99.90
52181;DHT22;38158;53.338;6.514;2023-11-21T10:49:48;8.40;99.90
52181;DHT22;38158;53.338;6.514;2023-11-21T10:52:14;8.50;99.90
52181;DHT22;38158;53.338;6.514;2023-11-21T10:54:43;8.50;99.90
52181;DHT22;38158;53.338;6.514;2023-11-21T10:57:10;8.50;99.90
52181;DHT22;38158;53.338;6.514;2023-11-21T10:59:36;8.50;99.90
52181;DHT22;38158;53.338;6.514;2023-11-21T11:02:17;8.50;99.90
52181;DHT22;38158;53.338;6.514;2023-11-21T11:04:48;8.50;99.90
52181;DHT22;38158;53.338;6.514;2023-11-21T11:07:14;8.50;99.90
52181;DHT22;38158;53.338;6.514;2023-11-21T11:09:41;8.50;99.90
52181;DHT22;38158;53.338;6.514;2023-11-21T11:12:08;8.50;99.90
52181;DHT22;38158;53.338;6.514;2023-11-21T11:14:35;8.50;99.90
52181;DHT22;38158;53.338;6.514;2023-11-21T11:17:02;8.50;99.90
52181;DHT22;38158;53.338;6.514;2023-11-21T11:19:29;8.40;99.90
52181;DHT22;38158;53.338;6.514;2023-11-21T11:22:19;8.40;99.90
52181;DHT22;38158;53.338;6.514;2023-11-21T11:27:58;8.40;99.90
52181;DHT22;38158;53.338;6.514;2023-11-21T11:31:21;8.50;99.90
52181;DHT22;38158;53.338;6.514;2023-11-21T11:33:50;8.70;99.90
52181;DHT22;38158;53.338;6.514;2023-11-21T11:36:51;8.80;99.90
52181;DHT22;38158;53.338;6.514;2023-11-21T11:39:32;9.30;99.90
52181;DHT22;38158;53.338;6.514;2023-11-21T11:42:03;9.10;99.90
52181;DHT22;38158;53.338;6.514;2023-11-21T11:47:25;9.20;99.90
52181;DHT22;38158;53.338;6.514;2023-11-21T11:52:41;9.30;99.90
52181;DHT22;38158;53.338;6.514;2023-11-21T11:55:09;9.20;99.90
52181;DHT22;38158;53.338;6.514;2023-11-21T11:57:42;9.20;99.90
52181;DHT22;38158;53.338;6.514;2023-11-21T12:00:19;9.20;99.90
52181;DHT22;38158;53.338;6.514;2023-11-21T12:02:53;9.20;99.90
52181;DHT22;38158;53.338;6.514;2023-11-21T12:05:20;9.20;99.90
52181;DHT22;38158;53.338;6.514;2023-11-21T12:07:51;9.20;99.90
52181;DHT22;38158;53.338;6.514;2023-11-21T12:12:55;9.20;99.90
52181;DHT22;38158;53.338;6.514;2023-11-21T12:15:21;9.20;99.90
52181;DHT22;38158;53.338;6.514;2023-11-21T12:17:48;9.20;99.90
52181;DHT22;38158;53.338;6.514;2023-11-21T12:20:18;9.20;99.90
52181;DHT22;38158;53.338;6.514;2023-11-21T12:22:48;9.10;99.90
52181;DHT22;38158;53.338;6.514;2023-11-21T12:25:15;9.10;99.90
52181;DHT22;38158;53.338;6.514;2023-11-21T12:27:42;9.00;99.90
52181;DHT22;38158;53.338;6.514;2023-11-21T12:30:11;9.00;99.90
52181;DHT22;38158;53.338;6.514;2023-11-21T12:32:41;8.90;99.90
52181;DHT22;38158;53.338;6.514;2023-11-21T12:35:09;8.90;99.90
52181;DHT22;38158;53.338;6.514;2023-11-21T12:37:39;8.80;99.90
52181;DHT22;38158;53.338;6.514;2023-11-21T12:40:06;8.80;99.90
52181;DHT22;38158;53.338;6.514;2023-11-21T12:42:45;8.70;99.90
52181;DHT22;38158;53.338;6.514;2023-11-21T12:48:02;8.70;99.90
52181;DHT22;38158;53.338;6.514;2023-11-21T12:50:34;8.70;99.90
52181;DHT22;38158;53.338;6.514;2023-11-21T12:53:12;8.80;99.90
52181;DHT22;38158;53.338;6.514;2023-11-21T12:55:38;8.80;99.90
52181;DHT22;38158;53.338;6.514;2023-11-21T12:58:06;8.70;99.90
52181;DHT22;38158;53.338;6.514;2023-11-21T13:00:39;8.70;99.90
52181;DHT22;38158;53.338;6.514;2023-11-21T13:03:10;8.70;99.90
52181;DHT22;38158;53.338;6.514;2023-11-21T13:05:39;8.70;99.90
52181;DHT22;38158;53.338;6.514;2023-11-21T13:08:08;8.70;99.90
52181;DHT22;38158;53.338;6.514;2023-11-21T13:10:36;8.70;99.90
52181;DHT22;38158;53.338;6.514;2023-11-21T13:13:04;8.70;99.90
52181;DHT22;38158;53.338;6.514;2023-11-21T13:15:51;8.70;99.90
52181;DHT22;38158;53.338;6.514;2023-11-21T13:18:26;8.70;99.90
52181;DHT22;38158;53.338;6.514;2023-11-21T13:20:57;8.60;99.90
52181;DHT22;38158;53.338;6.514;2023-11-21T13:23:23;8.60;99.90
52181;DHT22;38158;53.338;6.514;2023-11-21T13:25:49;8.70;99.90
52181;DHT22;38158;53.338;6.514;2023-11-21T13:28:16;8.80;99.90
52181;DHT22;38158;53.338;6.514;2023-11-21T13:30:43;8.90;99.90
52181;DHT22;38158;53.338;6.514;2023-11-21T13:33:10;8.90;99.90
52181;DHT22;38158;53.338;6.514;2023-11-21T13:35:44;8.90;99.90
52181;DHT22;38158;53.338;6.514;2023-11-21T13:38:18;8.80;99.90
52181;DHT22;38158;53.338;6.514;2023-11-21T13:40:52;8.70;99.90
52181;DHT22;38158;53.338;6.514;2023-11-21T13:43:24;8.70;99.90
52181;DHT22;38158;53.338;6.514;2023-11-21T13:45:52;8.70;99.90
52181;DHT22;38158;53.338;6.514;2023-11-21T13:48:24;8.60;99.90
52181;DHT22;38158;53.338;6.514;2023-11-21T13:51:06;8.60;99.90
52181;DHT22;38158;53.338;6.514;2023-11-21T13:53:49;8.60;99.90
52181;DHT22;38158;53.338;6.514;2023-11-21T13:56:19;8.50;99.90
52181;DHT22;38158;53.338;6.514;2023-11-21T13:58:49;8.50;99.90
52181;DHT22;38158;53.338;6.514;2023-11-21T14:01:19;8.50;99.90
52181;DHT22;38158;53.338;6.514;2023-11-21T14:04:01;8.50;99.90
52181;DHT22;38158;53.338;6.514;2023-11-21T14:06:49;8.50;99.90
52181;DHT22;38158;53.338;6.514;2023-11-21T14:09:19;8.40;99.90
52181;DHT22;38158;53.338;6.514;2023-11-21T14:11:56;8.40;99.90
52181;DHT22;38158;53.338;6.514;2023-11-21T14:14:24;8.30;99.90
52181;DHT22;38158;53.338;6.514;2023-11-21T14:16:58;8.30;99.90
52181;DHT22;38158;53.338;6.514;2023-11-21T14:19:24;8.20;99.90
52181;DHT22;38158;53.338;6.514;2023-11-21T14:21:57;8.20;99.90
52181;DHT22;38158;53.338;6.514;2023-11-21T14:24:22;8.20;99.90
52181;DHT22;38158;53.338;6.514;2023-11-21T14:26:49;8.20;99.90
52181;DHT22;38158;53.338;6.514;2023-11-21T14:29:18;8.20;99.90
52181;DHT22;38158;53.338;6.514;2023-11-21T14:31:48;8.20;99.90
52181;DHT22;38158;53.338;6.514;2023-11-21T14:34:16;8.20;99.90
52181;DHT22;38158;53.338;6.514;2023-11-21T14:36:42;8.20;99.90
52181;DHT22;38158;53.338;6.514;2023-11-21T14:39:09;8.10;99.90
52181;DHT22;38158;53.338;6.514;2023-11-21T14:41:36;8.10;99.90
52181;DHT22;38158;53.338;6.514;2023-11-21T14:44:04;8.10;99.90
52181;DHT22;38158;53.338;6.514;2023-11-21T14:46:32;8.10;99.90
52181;DHT22;38158;53.338;6.514;2023-11-21T14:49:00;8.00;99.90
52181;DHT22;38158;53.338;6.514;2023-11-21T14:51:45;8.00;99.90
52181;DHT22;38158;53.338;6.514;2023-11-21T14:54:32;8.00;99.90
52181;DHT22;38158;53.338;6.514;2023-11-21T14:57:09;8.00;99.90
52181;DHT22;38158;53.338;6.514;2023-11-21T14:59:42;8.00;99.90
52181;DHT22;38158;53.338;6.514;2023-11-21T15:02:08;7.90;99.90
52181;DHT22;38158;53.338;6.514;2023-11-21T15:04:48;8.00;99.90
52181;DHT22;38158;53.338;6.514;2023-11-21T15:07:18;7.90;99.90
52181;DHT22;38158;53.338;6.514;2023-11-21T15:09:44;7.90;99.90
52181;DHT22;38158;53.338;6.514;2023-11-21T15:12:11;7.90;99.90
52181;DHT22;38158;53.338;6.514;2023-11-21T15:14:44;7.90;99.90
52181;DHT22;38158;53.338;6.514;2023-11-21T15:17:12;7.90;99.90
52181;DHT22;38158;53.338;6.514;2023-11-21T15:19:44;7.90;99.90
52181;DHT22;38158;53.338;6.514;2023-11-21T15:22:10;7.90;99.90
52181;DHT22;38158;53.338;6.514;2023-11-21T15:24:40;7.80;99.90
52181;DHT22;38158;53.338;6.514;2023-11-21T15:27:08;7.80;99.90
52181;DHT22;38158;53.338;6.514;2023-11-21T15:29:34;7.80;99.90
52181;DHT22;38158;53.338;6.514;2023-11-21T15:32:00;7.90;99.90
52181;DHT22;38158;53.338;6.514;2023-11-21T15:34:26;7.80;99.90
52181;DHT22;38158;53.338;6.514;2023-11-21T15:36:54;7.80;99.90
52181;DHT22;38158;53.338;6.514;2023-11-21T15:39:20;7.70;99.90
52181;DHT22;38158;53.338;6.514;2023-11-21T15:41:54;7.70;99.90
52181;DHT22;38158;53.338;6.514;2023-11-21T15:44:20;7.60;99.90
52181;DHT22;38158;53.338;6.514;2023-11-21T15:46:45;7.50;99.90
52181;DHT22;38158;53.338;6.514;2023-11-21T15:49:11;7.40;99.90
52181;DHT22;38158;53.338;6.514;2023-11-21T15:51:43;7.30;99.90
52181;DHT22;38158;53.338;6.514;2023-11-21T15:54:21;7.30;99.90
52181;DHT22;38158;53.338;6.514;2023-11-21T15:56:48;7.20;99.90
52181;DHT22;38158;53.338;6.514;2023-11-21T15:59:14;7.20;99.90
52181;DHT22;38158;53.338;6.514;2023-11-21T16:01:40;7.20;99.90
52181;DHT22;38158;53.338;6.514;2023-11-21T16:04:10;7.10;99.90
52181;DHT22;38158;53.338;6.514;2023-11-21T16:06:37;7.10;99.90